sensor_id;sensor_type;location;lat;lon;timestamp;P1;durP1;ratioP1;P2;durP2;ratioP2
52438;SDS011;38359;53.150;6.504;2022-11-15T00:06:01;40.10;;;23.48;;
52438;SDS011;38359;53.150;6.504;2022-11-15T00:16:28;43.38;;;24.75;;
52438;SDS011;38359;53.150;6.504;2022-11-15T00:26:54;38.40;;;24.83;;
52438;SDS011;38359;53.150;6.504;2022-11-15T00:37:20;43.08;;;25.83;;
52438;SDS011;38359;53.150;6.504;2022-11-15T00:47:45;41.28;;;24.42;;
52438;SDS011;38359;53.150;6.504;2022-11-15T00:58:11;44.33;;;25.20;;
52438;SDS011;38359;53.150;6.504;2022-11-15T01:08:38;44.63;;;24.08;;
52438;SDS011;38359;53.150;6.504;2022-11-15T01:19:05;41.30;;;24.85;;
52438;SDS011;38359;53.150;6.504;2022-11-15T01:29:30;43.88;;;25.73;;
52438;SDS011;38359;53.150;6.504;2022-11-15T01:39:56;42.55;;;25.35;;
52438;SDS011;38359;53.150;6.504;2022-11-15T01:50:23;50.28;;;28.23;;
52438;SDS011;38359;53.150;6.504;2022-11-15T02:00:55;48.53;;;27.35;;
52438;SDS011;38359;53.150;6.504;2022-11-15T02:11:21;42.40;;;24.73;;
52438;SDS011;38359;53.150;6.504;2022-11-15T02:32:54;39.47;;;22.83;;
52438;SDS011;38359;53.150;6.504;2022-11-15T02:54:30;59.45;;;27.77;;
52438;SDS011;38359;53.150;6.504;2022-11-15T03:15:37;54.47;;;28.15;;
52438;SDS011;38359;53.150;6.504;2022-11-15T03:26:10;59.35;;;28.20;;
52438;SDS011;38359;53.150;6.504;2022-11-15T03:36:37;60.60;;;28.98;;
52438;SDS011;38359;53.150;6.504;2022-11-15T03:47:06;65.10;;;29.65;;
52438;SDS011;38359;53.150;6.504;2022-11-15T03:57:45;61.53;;;29.30;;
52438;SDS011;38359;53.150;6.504;2022-11-15T04:08:16;75.63;;;30.83;;
52438;SDS011;38359;53.150;6.504;2022-11-15T04:18:42;75.53;;;31.65;;
52438;SDS011;38359;53.150;6.504;2022-11-15T04:29:08;82.10;;;32.65;;
52438;SDS011;38359;53.150;6.504;2022-11-15T04:39:52;76.13;;;32.43;;
52438;SDS011;38359;53.150;6.504;2022-11-15T04:50:18;77.75;;;32.50;;
52438;SDS011;38359;53.150;6.504;2022-11-15T05:00:43;99.60;;;36.60;;
52438;SDS011;38359;53.150;6.504;2022-11-15T05:11:09;101.30;;;39.38;;
52438;SDS011;38359;53.150;6.504;2022-11-15T05:21:35;121.70;;;40.85;;
52438;SDS011;38359;53.150;6.504;2022-11-15T05:32:03;127.30;;;43.35;;
52438;SDS011;38359;53.150;6.504;2022-11-15T05:42:30;146.73;;;48.67;;
52438;SDS011;38359;53.150;6.504;2022-11-15T05:52:56;141.25;;;47.20;;
52438;SDS011;38359;53.150;6.504;2022-11-15T06:03:22;164.32;;;53.25;;
52438;SDS011;38359;53.150;6.504;2022-11-15T06:13:48;162.50;;;51.15;;
52438;SDS011;38359;53.150;6.504;2022-11-15T06:24:14;156.77;;;54.40;;
52438;SDS011;38359;53.150;6.504;2022-11-15T06:34:40;147.73;;;53.28;;
52438;SDS011;38359;53.150;6.504;2022-11-15T06:45:06;177.00;;;57.20;;
52438;SDS011;38359;53.150;6.504;2022-11-15T06:55:32;140.45;;;52.50;;
52438;SDS011;38359;53.150;6.504;2022-11-15T07:05:58;164.63;;;59.10;;
52438;SDS011;38359;53.150;6.504;2022-11-15T07:16:24;161.55;;;54.40;;
52438;SDS011;38359;53.150;6.504;2022-11-15T07:26:50;135.60;;;51.65;;
52438;SDS011;38359;53.150;6.504;2022-11-15T07:37:15;144.90;;;53.33;;
52438;SDS011;38359;53.150;6.504;2022-11-15T07:47:44;137.02;;;51.92;;
52438;SDS011;38359;53.150;6.504;2022-11-15T07:58:11;135.43;;;50.85;;
52438;SDS011;38359;53.150;6.504;2022-11-15T08:08:37;120.75;;;51.25;;
52438;SDS011;38359;53.150;6.504;2022-11-15T08:19:03;120.57;;;50.17;;
52438;SDS011;38359;53.150;6.504;2022-11-15T08:29:29;105.55;;;46.50;;
52438;SDS011;38359;53.150;6.504;2022-11-15T08:39:55;91.07;;;45.03;;
52438;SDS011;38359;53.150;6.504;2022-11-15T08:50:21;88.53;;;43.20;;
52438;SDS011;38359;53.150;6.504;2022-11-15T09:00:47;81.25;;;41.47;;
52438;SDS011;38359;53.150;6.504;2022-11-15T09:11:13;80.60;;;39.53;;
52438;SDS011;38359;53.150;6.504;2022-11-15T09:21:39;62.05;;;34.13;;
52438;SDS011;38359;53.150;6.504;2022-11-15T09:32:05;57.92;;;32.25;;
52438;SDS011;38359;53.150;6.504;2022-11-15T09:53:37;55.03;;;27.37;;
52438;SDS011;38359;53.150;6.504;2022-11-15T10:04:22;53.13;;;26.27;;
52438;SDS011;38359;53.150;6.504;2022-11-15T10:14:58;47.13;;;26.20;;
52438;SDS011;38359;53.150;6.504;2022-11-15T10:25:30;46.67;;;25.02;;
52438;SDS011;38359;53.150;6.504;2022-11-15T10:46:39;42.80;;;23.75;;
52438;SDS011;38359;53.150;6.504;2022-11-15T10:57:12;36.22;;;23.83;;
52438;SDS011;38359;53.150;6.504;2022-11-15T11:07:45;36.58;;;21.83;;
52438;SDS011;38359;53.150;6.504;2022-11-15T11:18:28;34.05;;;21.70;;
52438;SDS011;38359;53.150;6.504;2022-11-15T11:40:20;23.73;;;13.32;;
52438;SDS011;38359;53.150;6.504;2022-11-15T11:51:05;12.27;;;6.10;;
52438;SDS011;38359;53.150;6.504;2022-11-15T12:01:43;12.00;;;6.40;;
52438;SDS011;38359;53.150;6.504;2022-11-15T12:54:56;8.65;;;2.95;;
52438;SDS011;38359;53.150;6.504;2022-11-15T13:05:50;9.10;;;2.83;;
52438;SDS011;38359;53.150;6.504;2022-11-15T13:16:23;12.02;;;4.30;;
52438;SDS011;38359;53.150;6.504;2022-11-15T13:26:50;9.60;;;4.18;;
52438;SDS011;38359;53.150;6.504;2022-11-15T13:47:47;7.57;;;3.10;;
52438;SDS011;38359;53.150;6.504;2022-11-15T13:58:18;12.07;;;3.10;;
52438;SDS011;38359;53.150;6.504;2022-11-15T14:09:15;7.95;;;3.25;;
52438;SDS011;38359;53.150;6.504;2022-11-15T14:19:36;8.70;;;2.90;;
52438;SDS011;38359;53.150;6.504;2022-11-15T14:30:04;7.60;;;3.08;;
52438;SDS011;38359;53.150;6.504;2022-11-15T14:40:30;4.53;;;2.05;;
52438;SDS011;38359;53.150;6.504;2022-11-15T14:50:56;6.35;;;1.80;;
52438;SDS011;38359;53.150;6.504;2022-11-15T15:01:25;3.60;;;1.60;;
52438;SDS011;38359;53.150;6.504;2022-11-15T15:11:51;9.05;;;1.70;;
52438;SDS011;38359;53.150;6.504;2022-11-15T15:22:19;9.65;;;2.00;;
52438;SDS011;38359;53.150;6.504;2022-11-15T15:32:50;3.33;;;2.22;;
52438;SDS011;38359;53.150;6.504;2022-11-15T15:43:16;6.80;;;3.05;;
52438;SDS011;38359;53.150;6.504;2022-11-15T15:53:42;8.07;;;4.47;;
52438;SDS011;38359;53.150;6.504;2022-11-15T16:04:09;8.40;;;4.55;;
52438;SDS011;38359;53.150;6.504;2022-11-15T16:14:48;12.95;;;4.85;;
52438;SDS011;38359;53.150;6.504;2022-11-15T16:25:13;9.18;;;4.88;;
52438;SDS011;38359;53.150;6.504;2022-11-15T16:35:39;9.15;;;5.13;;
52438;SDS011;38359;53.150;6.504;2022-11-15T16:46:24;12.45;;;6.32;;
52438;SDS011;38359;53.150;6.504;2022-11-15T16:56:51;8.77;;;4.93;;
52438;SDS011;38359;53.150;6.504;2022-11-15T17:07:17;12.82;;;7.20;;
52438;SDS011;38359;53.150;6.504;2022-11-15T17:17:43;8.98;;;4.40;;
52438;SDS011;38359;53.150;6.504;2022-11-15T17:28:15;5.53;;;3.33;;
52438;SDS011;38359;53.150;6.504;2022-11-15T17:38:42;4.38;;;1.98;;
52438;SDS011;38359;53.150;6.504;2022-11-15T17:49:08;6.22;;;2.15;;
52438;SDS011;38359;53.150;6.504;2022-11-15T17:59:34;4.03;;;2.03;;
52438;SDS011;38359;53.150;6.504;2022-11-15T18:09:59;5.88;;;2.08;;
52438;SDS011;38359;53.150;6.504;2022-11-15T18:20:26;5.68;;;2.42;;
52438;SDS011;38359;53.150;6.504;2022-11-15T18:30:51;15.45;;;2.30;;
52438;SDS011;38359;53.150;6.504;2022-11-15T18:41:18;3.35;;;2.50;;
52438;SDS011;38359;53.150;6.504;2022-11-15T18:51:48;6.50;;;2.25;;
52438;SDS011;38359;53.150;6.504;2022-11-15T19:02:14;8.98;;;2.60;;
52438;SDS011;38359;53.150;6.504;2022-11-15T19:12:39;10.13;;;3.42;;
52438;SDS011;38359;53.150;6.504;2022-11-15T19:23:05;7.30;;;2.35;;
52438;SDS011;38359;53.150;6.504;2022-11-15T19:33:31;6.20;;;2.63;;
52438;SDS011;38359;53.150;6.504;2022-11-15T19:43:58;4.93;;;2.10;;
52438;SDS011;38359;53.150;6.504;2022-11-15T19:54:24;6.13;;;2.50;;
52438;SDS011;38359;53.150;6.504;2022-11-15T20:04:50;8.68;;;2.85;;
52438;SDS011;38359;53.150;6.504;2022-11-15T20:15:16;5.15;;;3.05;;
52438;SDS011;38359;53.150;6.504;2022-11-15T20:25:45;10.00;;;3.35;;
52438;SDS011;38359;53.150;6.504;2022-11-15T20:36:12;10.02;;;3.42;;
52438;SDS011;38359;53.150;6.504;2022-11-15T20:46:39;9.00;;;2.75;;
52438;SDS011;38359;53.150;6.504;2022-11-15T20:57:05;8.27;;;6.30;;
52438;SDS011;38359;53.150;6.504;2022-11-15T21:07:31;12.10;;;4.20;;
52438;SDS011;38359;53.150;6.504;2022-11-15T21:17:57;8.95;;;4.28;;
52438;SDS011;38359;53.150;6.504;2022-11-15T21:28:22;15.90;;;4.78;;
52438;SDS011;38359;53.150;6.504;2022-11-15T21:38:48;13.23;;;5.60;;
52438;SDS011;38359;53.150;6.504;2022-11-15T21:49:14;10.80;;;5.93;;
52438;SDS011;38359;53.150;6.504;2022-11-15T21:59:40;10.02;;;6.60;;
52438;SDS011;38359;53.150;6.504;2022-11-15T22:10:26;15.27;;;8.20;;
52438;SDS011;38359;53.150;6.504;2022-11-15T22:21:02;13.73;;;6.90;;
52438;SDS011;38359;53.150;6.504;2022-11-15T22:31:39;12.95;;;6.90;;
52438;SDS011;38359;53.150;6.504;2022-11-15T22:42:05;32.25;;;18.67;;
52438;SDS011;38359;53.150;6.504;2022-11-15T22:52:31;14.52;;;7.65;;
52438;SDS011;38359;53.150;6.504;2022-11-15T23:02:57;10.02;;;7.80;;
52438;SDS011;38359;53.150;6.504;2022-11-15T23:13:23;11.40;;;8.07;;
52438;SDS011;38359;53.150;6.504;2022-11-15T23:23:51;12.95;;;8.18;;
52438;SDS011;38359;53.150;6.504;2022-11-15T23:34:17;13.55;;;8.13;;
52438;SDS011;38359;53.150;6.504;2022-11-15T23:44:43;16.75;;;9.07;;
52438;SDS011;38359;53.150;6.504;2022-11-15T23:55:08;17.45;;;10.57;;
